logo tempoitalia

Diretta Meteo Anapa-Vitiazevo, Russialunedì 31 agosto ore 08:00

Mappa
Sereno 20 °C Sereno 24 Ore: T.min 17 T.max 30
Ponente Est Km/h 32.4 Punto di rugiada: 9 °C Umidità: 49% Visibilità: 10 Km
Il sole sorge alle: 05:51 Il sole tramonta alle: 19:10
31 Agosto 2026 08:00 tempo osservato: Sereno Sereno 20 49 1014 vento: Nord E 32.4
31 Agosto 2026 07:30 tempo osservato: Sereno Sereno 19 48 1014 vento: Nord E 32.4
31 Agosto 2026 07:00 tempo osservato: Sereno Sereno 18 51 1014 vento: Nord E 28.8
31 Agosto 2026 06:46 tempo osservato: Sereno Sereno 18 51 1014 vento: Nord E 28.8
31 Agosto 2026 06:30 tempo osservato: Sereno Sereno 17 55 1013 vento: Nord E 28.8
31 Agosto 2026 06:00 tempo osservato: Sereno Sereno 17 51 1014 vento: Nord E 28.8
31 Agosto 2026 05:35 tempo osservato: Sereno Sereno 17 51 1013 vento: Nord E 28.8
31 Agosto 2026 05:30 tempo osservato: Sereno Sereno 17 51 1013 vento: Nord E 25.2
31 Agosto 2026 05:00 tempo osservato: Sereno Sereno 17 51 1013 vento: Nord E/NE 36
31 Agosto 2026 04:59 tempo osservato: Sereno Sereno 17 51 1013 vento: Nord E/NE 36
31 Agosto 2026 04:34 tempo osservato: Sereno Sereno 17 51 1013 vento: Nord E/NE 36
31 Agosto 2026 04:30 tempo osservato: Sereno Sereno 18 48 1013 vento: Nord E/NE 36
31 Agosto 2026 04:18 tempo osservato: Sereno Sereno 18 48 1012 vento: Nord E/NE 39.6
31 Agosto 2026 04:00 tempo osservato: Sereno Sereno 18 48 1012 vento: Nord E/NE 39.6
31 Agosto 2026 03:50 tempo osservato: Sereno Sereno 18 48 1013 vento: Nord E/NE 32.4
31 Agosto 2026 03:30 tempo osservato: Sereno Sereno 18 48 1014 vento: Nord E/NE 18
31 Agosto 2026 03:00 tempo osservato: Sereno Sereno 19 48 1013 vento: Nord E/NE 28.8
31 Agosto 2026 02:30 tempo osservato: Sereno Sereno 19 52 1013 vento: Nord E/NE 25.2
31 Agosto 2026 02:00 tempo osservato: Sereno Sereno 19 59 1012 vento: Nord E/NE 36
31 Agosto 2026 01:30 tempo osservato: Sereno Sereno 19 68 1013 vento: Nord E/NE 39.6
31 Agosto 2026 01:00 tempo osservato: Sereno Sereno 19 68 1013 vento: Nord E/NE 25.2
31 Agosto 2026 00:30 tempo osservato: Sereno Sereno 19 68 1013 vento: Nord E/NE 25.2
31 Agosto 2026 00:00 tempo osservato: Sereno Sereno 20 64 1013 vento: Nord E/NE 25.2
30 Agosto 2026 23:30 tempo osservato: Sereno Sereno 18 72 1014 vento: Nord E/NE 21.6
30 Agosto 2026 23:00 tempo osservato: Sereno Sereno 19 68 1014 vento: Nord E/NE 10.8
30 Agosto 2026 22:30 tempo osservato: Sereno Sereno 19 63 1014 vento: Nord E/NE 18
30 Agosto 2026 22:00 tempo osservato: Sereno Sereno 19 63 1014 vento: Nord E/NE 14.4
30 Agosto 2026 21:30 tempo osservato: Sereno Sereno 21 56 1014 vento: Nord NE 14.4
30 Agosto 2026 21:00 tempo osservato: Sereno Sereno 21 52 1014 vento: Nord NE 14.4
30 Agosto 2026 20:30 tempo osservato: Sereno Sereno 23 49 1013 vento: Nord E/NE 18
30 Agosto 2026 20:00 tempo osservato: Sereno Sereno 23 46 1013 vento: Nord E/NE 18
30 Agosto 2026 19:30 tempo osservato: Sereno Sereno 26 39 1012 vento: Nord E/NE 21.6
30 Agosto 2026 19:00 tempo osservato: Sereno Sereno 27 34 1012 vento: Nord E/NE 25.2
30 Agosto 2026 18:30 tempo osservato: Sereno Sereno 28 32 1012 vento: Nord E 32.4
30 Agosto 2026 18:00 tempo osservato: Sereno Sereno 28 32 1012 vento: Nord E 36
30 Agosto 2026 17:49 tempo osservato: Sereno Sereno 28 32 1012 vento: Nord E 36
30 Agosto 2026 17:30 tempo osservato: Sereno Sereno 29 30 1012 vento: Nord E 36
30 Agosto 2026 17:00 tempo osservato: Sereno Sereno 29 30 1012 vento: Nord E 36
30 Agosto 2026 16:30 tempo osservato: Sereno Sereno 29 30 1012 vento: Nord E 36
30 Agosto 2026 16:15 tempo osservato: Sereno Sereno 29 30 1012 vento: Nord E 32.4
30 Agosto 2026 16:00 tempo osservato: Sereno Sereno 29 30 1012 vento: Nord E 39.6
30 Agosto 2026 15:30 tempo osservato: Sereno Sereno 30 28 1012 vento: Nord E/NE 39.6
30 Agosto 2026 15:00 tempo osservato: Sereno Sereno 29 32 1012 vento: Nord E/NE 39.6
30 Agosto 2026 14:54 tempo osservato: Sereno Sereno 29 30 1012 vento: Nord E 36
30 Agosto 2026 14:52 tempo osservato: Sereno Sereno 29 30 1012 vento: Nord E 36
30 Agosto 2026 14:32 tempo osservato: Sereno Sereno 29 30 1012 vento: Nord E 39.6
30 Agosto 2026 14:30 tempo osservato: Sereno Sereno 29 30 1012 vento: Nord E 36
30 Agosto 2026 14:24 tempo osservato: Sereno Sereno 30 28 1012 vento: Nord E/NE 39.6
30 Agosto 2026 14:00 tempo osservato: Sereno Sereno 29 30 1013 vento: Nord E 39.6
30 Agosto 2026 13:57 tempo osservato: Sereno Sereno 29 30 1013 vento: Nord E 39.6
30 Agosto 2026 13:30 tempo osservato: Sereno Sereno 29 30 1013 vento: Nord E/NE 43.2
30 Agosto 2026 13:20 tempo osservato: Sereno Sereno 29 30 1013 vento: Nord E 39.6
30 Agosto 2026 13:16 tempo osservato: Sereno Sereno 29 30 1013 vento: Nord E 43.2
30 Agosto 2026 13:00 tempo osservato: Sereno Sereno 29 30 1013 vento: Nord E/NE 46.8
30 Agosto 2026 12:30 tempo osservato: Sereno Sereno 28 30 1012 vento: Nord E/NE 46.8
30 Agosto 2026 12:03 tempo osservato: Sereno Sereno 28 30 1012 vento: Nord E 43.2
30 Agosto 2026 12:00 tempo osservato: Sereno Sereno 28 32 1013 vento: Nord E 43.2
30 Agosto 2026 11:34 tempo osservato: Sereno Sereno 28 30 1013 vento: Nord E 46.8
30 Agosto 2026 11:30 tempo osservato: Sereno Sereno 28 32 1013 vento: Nord E 46.8
30 Agosto 2026 11:27 tempo osservato: Sereno Sereno 28 32 1013 vento: Nord E 46.8
30 Agosto 2026 11:00 tempo osservato: Sereno Sereno 27 34 1013 vento: Nord E/NE 39.6
30 Agosto 2026 10:30 tempo osservato: Sereno Sereno 27 34 1013 vento: Nord E 36
30 Agosto 2026 10:00 tempo osservato: Sereno Sereno 26 36 1013 vento: Nord E 39.6
30 Agosto 2026 09:30 tempo osservato: Sereno Sereno 25 38 1012 vento: Nord E 39.6
30 Agosto 2026 09:01 tempo osservato: Sereno Sereno 24 41 1012 vento: Nord E 39.6
30 Agosto 2026 09:00 tempo osservato: Sereno Sereno 24 41 1012 vento: Nord E 36